Nipawin Airport

CYBU · 薩斯喀徹溫, 加拿大

罗盘
风向 的 风向 030° Nipawin Airport 3/21
风: 11 kt, 4 beaufort

11 kt

3 kt
改变
0 ft 1.000 2.000 3.000 4.000 5.000
Cloud Cloud Cloud Cloud Cloud Cloud Cloud Cloud
OVC 1.100
METAR CYBU 200500Z AUTO 03011KT 9SM OVC011 05/04 A2989 RMK SLP139

METAR Nipawin Airport - CYBU

Nipawin Airport是,加拿大中的中型机场。 该机场位于纬度53,33264和经度-104,00879。 该机场有2条跑道: 3/21 和 12/30. 本场的ICAO机场代码为CYBU。 机场在Winnipeg FIR中。

该航空气象观测是针对Nipawin Airport在2024年5月19日 23:00, 当地时间进行的。

机场观察

风向为030°,速度为11 kt。

可见度为9 mi。

有乌云密布在1.100 ft的高度。 破损或更高的上限为1.100 ft。

温度为5 °C,阵风为-1 °C。 露点为4 °C,相对湿度为93%。 海平面上的气压为29,89 inHg (QNH)。

白天

今天,太阳从04:47升起,在20:58降落。 这适用于Nipawin Airport,世界夏令时可能有所不同。 当地时间与世界标准时间之间的时差为-6 小时。 夏令时目前正在进行中。

公司介绍

我们没有关于这个机场的公司信息。

体会

到Vliegles.nl去找飞行课程,跳伞和其他飞行体验。 浏览页面,了解Nipawin Airport附近所有可用的活动。 你也可以使用搜索功能来寻找你所在地附近的特定飞行课程、跳伞或其他飞行体验。

跑道

Id 标题 侧风 逆风 侧风 %
3/21 045°-225° 3 kt 11 kt 26 %
12/30 135°-315° 11 kt 3 kt 97 %

逆风成分最大的方向会被突出显示,并用于横风计算。 这并不一定意味着这个方向在使用。

乌云

1.100 ft OVC 乌云密布

温度 & 天气

温度 5 °C
露点 4 °C
相对湿度 93%
风寒 -1 °C
Kp-index 2 (0-9)

评论

SLP139海平面压力为29,94 inHg (29,94 inHg)

白天

日出
04:47 (4:47)
中午
12:52
日落
20:58

小工具

你想在你的网站上有一个关于Nipawin Airport的当前航空天气(METAR)的小部件吗?

显示HTML代码
报告变更